PWSweather.com
Personal Weather Stations
Station Observations
KCTHAMDEN
Dunbar Hill, Hamden, CT 06514

Dunbar HillHamden, CT 06514

Lat: 41.365437, Lon: -72.956532

Elevation: 200

Station Type: Davis Vantage Pro2+

www.hamdenweather.com

High Low Average
Temperature 73.4°F23.0°C 70.1°F21.2°C 71.7°F22.1°C
Dew Point 72.4°F22.4°C 68.6°F20.3°C 70.3°F21.3°C
Winds 4.2 mph 6.8 kmh Calm Calm 1.0 mph SSE1.6 kmh SSE
Wind Gusts 11.0 mph17.7 kmh -- 3.0 mph4.8 kmh
Humidity 98% 93% 96%
Pressure 30.08 in1018.6 mb 29.89 in1012.2 mb -
Precipitation 0.92 in23.4 mm - -
Hour Temp Dew Point Humidity Winds Wind Gusts Pressure Precip Precip Rate Daily Precip Total
12:00 AM 72.2°F22.3°C 70.1°F21.2°C 93% Calm Calm 3.0 mph4.8 kmh 30.08 in1018.6 mb - 0.00 in0.0 mm 0.00 in0.0 mm
12:15 AM 72.0°F22.2°C 69.9°F21.1°C 93% 0.5 mph NE0.8 kmh NE 3.0 mph4.8 kmh 30.08 in1018.6 mb - 0.00 in0.0 mm 0.00 in0.0 mm
12:30 AM 71.9°F22.2°C 69.8°F21.0°C 93% Calm Calm 1.0 mph1.6 kmh 30.07 in1018.3 mb - 0.00 in0.0 mm 0.00 in0.0 mm
12:45 AM 71.8°F22.1°C 69.7°F20.9°C 93% 0.1 mph SW0.2 kmh SW 2.0 mph3.2 kmh 30.07 in1018.3 mb - 0.00 in0.0 mm 0.00 in0.0 mm
01:00 AM 71.8°F22.1°C 69.7°F20.9°C 93% Calm Calm -- 30.06 in1017.9 mb - 0.00 in0.0 mm 0.00 in0.0 mm
01:15 AM 71.7°F22.1°C 69.6°F20.9°C 93% 0.5 mph WSW0.8 kmh WSW 2.0 mph3.2 kmh 30.07 in1018.3 mb - 0.00 in0.0 mm 0.00 in0.0 mm
01:30 AM 71.7°F22.1°C 69.6°F20.9°C 93% 0.4 mph N0.6 kmh N 2.0 mph3.2 kmh 30.06 in1017.9 mb - 0.00 in0.0 mm 0.00 in0.0 mm
01:45 AM 71.6°F22.0°C 69.5°F20.8°C 93% 0.6 mph WSW1.0 kmh WSW 2.0 mph3.2 kmh 30.06 in1017.9 mb - 0.00 in0.0 mm 0.00 in0.0 mm
02:00 AM 71.5°F21.9°C 69.4°F20.8°C 93% 0.7 mph WSW1.1 kmh WSW 1.0 mph1.6 kmh 30.06 in1017.9 mb - 0.00 in0.0 mm 0.00 in0.0 mm
02:15 AM 71.4°F21.9°C 69.3°F20.7°C 93% 1.3 mph NNE2.1 kmh NNE 3.0 mph4.8 kmh 30.05 in1017.6 mb - 0.00 in0.0 mm 0.00 in0.0 mm
02:30 AM 71.3°F21.8°C 69.2°F20.7°C 93% 1.9 mph WSW3.1 kmh WSW 4.0 mph6.4 kmh 30.05 in1017.6 mb - 0.00 in0.0 mm 0.00 in0.0 mm
02:45 AM 71.2°F21.8°C 69.1°F20.6°C 93% 2.7 mph SW4.3 kmh SW 3.0 mph4.8 kmh 30.05 in1017.6 mb - 0.00 in0.0 mm 0.00 in0.0 mm
03:00 AM 71.1°F21.7°C 69.3°F20.7°C 94% 0.8 mph WSW1.3 kmh WSW 1.0 mph1.6 kmh 30.04 in1017.3 mb - 0.00 in0.0 mm 0.00 in0.0 mm
03:15 AM 70.9°F21.6°C 69.1°F20.6°C 94% 1.6 mph WSW2.6 kmh WSW 2.0 mph3.2 kmh 30.04 in1017.3 mb - 0.00 in0.0 mm 0.00 in0.0 mm
03:30 AM 70.7°F21.5°C 68.9°F20.5°C 94% 1.3 mph N2.1 kmh N 3.0 mph4.8 kmh 30.04 in1017.3 mb - 0.00 in0.0 mm 0.00 in0.0 mm
03:45 AM 70.6°F21.4°C 68.8°F20.4°C 94% 1.7 mph NE2.7 kmh NE 3.0 mph4.8 kmh 30.04 in1017.3 mb - 0.00 in0.0 mm 0.00 in0.0 mm
04:00 AM 70.4°F21.3°C 68.6°F20.3°C 94% Calm Calm -- 30.04 in1017.3 mb - 0.00 in0.0 mm 0.00 in0.0 mm
04:15 AM 70.3°F21.3°C 68.8°F20.4°C 95% 2.2 mph SSW3.5 kmh SSW 4.0 mph6.4 kmh 30.04 in1017.3 mb - 0.00 in0.0 mm 0.00 in0.0 mm
04:30 AM 70.2°F21.2°C 68.7°F20.4°C 95% 0.1 mph NNE0.2 kmh NNE 2.0 mph3.2 kmh 30.04 in1017.3 mb - 0.00 in0.0 mm 0.00 in0.0 mm
04:45 AM 70.2°F21.2°C 68.7°F20.4°C 95% Calm Calm 1.0 mph1.6 kmh 30.04 in1017.3 mb - 0.00 in0.0 mm 0.00 in0.0 mm
05:00 AM 70.2°F21.2°C 68.7°F20.4°C 95% 0.5 mph N0.8 kmh N -- 30.04 in1017.3 mb - 0.00 in0.0 mm 0.00 in0.0 mm
05:15 AM 70.1°F21.2°C 68.6°F20.3°C 95% 3.8 mph NNW6.1 kmh NNW 4.0 mph6.4 kmh 30.04 in1017.3 mb - 0.00 in0.0 mm 0.00 in0.0 mm
05:30 AM 70.2°F21.2°C 68.7°F20.4°C 95% 2.9 mph N4.7 kmh N 6.0 mph9.7 kmh 30.04 in1017.3 mb - 0.00 in0.0 mm 0.00 in0.0 mm
05:45 AM 70.2°F21.2°C 68.7°F20.4°C 95% Calm Calm -- 30.05 in1017.6 mb - 0.00 in0.0 mm 0.00 in0.0 mm
06:00 AM 70.3°F21.3°C 68.8°F20.4°C 95% Calm Calm -- 30.05 in1017.6 mb - 0.00 in0.0 mm 0.00 in0.0 mm
06:15 AM 70.4°F21.3°C 68.9°F20.5°C 95% 2.3 mph NE3.7 kmh NE 5.0 mph8.0 kmh 30.04 in1017.3 mb - 0.00 in0.0 mm 0.00 in0.0 mm
06:30 AM 70.5°F21.4°C 69.0°F20.6°C 95% 0.8 mph NE1.3 kmh NE 3.0 mph4.8 kmh 30.04 in1017.3 mb - 0.00 in0.0 mm 0.00 in0.0 mm
06:45 AM 70.6°F21.4°C 69.1°F20.6°C 95% 1.2 mph N1.9 kmh N 1.0 mph1.6 kmh 30.05 in1017.6 mb - 0.00 in0.0 mm 0.00 in0.0 mm
07:00 AM 70.8°F21.6°C 69.3°F20.7°C 95% Calm Calm -- 30.04 in1017.3 mb - 0.00 in0.0 mm 0.00 in0.0 mm
07:15 AM 71.0°F21.7°C 69.5°F20.8°C 95% 0.2 mph NE0.3 kmh NE -- 30.04 in1017.3 mb - 0.00 in0.0 mm 0.00 in0.0 mm
07:30 AM 71.1°F21.7°C 69.6°F20.9°C 95% 0.9 mph E1.4 kmh E 4.0 mph6.4 kmh 30.04 in1017.3 mb - 0.00 in0.0 mm 0.00 in0.0 mm
07:45 AM 71.4°F21.9°C 69.6°F20.9°C 94% 0.2 mph N0.3 kmh N -- 30.04 in1017.3 mb - 0.00 in0.0 mm 0.00 in0.0 mm
08:00 AM 71.6°F22.0°C 69.8°F21.0°C 94% 0.5 mph E0.8 kmh E 2.0 mph3.2 kmh 30.04 in1017.3 mb - 0.00 in0.0 mm 0.00 in0.0 mm
08:15 AM 71.7°F22.1°C 69.6°F20.9°C 93% 2.2 mph WSW3.5 kmh WSW 10.0 mph16.1 kmh 30.04 in1017.3 mb - 0.00 in0.0 mm 0.00 in0.0 mm
08:30 AM 71.9°F22.2°C 69.7°F20.9°C 93% 3.4 mph W5.5 kmh W 9.0 mph14.5 kmh 30.04 in1017.3 mb - 0.00 in0.0 mm 0.00 in0.0 mm
08:45 AM 71.9°F22.2°C 69.8°F21.0°C 93% 3.6 mph ENE5.8 kmh ENE 5.0 mph8.0 kmh 30.03 in1016.9 mb - 0.00 in0.0 mm 0.00 in0.0 mm
09:00 AM 72.2°F22.3°C 70.4°F21.3°C 94% 0.4 mph N0.6 kmh N 3.0 mph4.8 kmh 30.03 in1016.9 mb - 0.01 in0.3 mm 0.01 in0.3 mm
09:15 AM 72.2°F22.3°C 70.4°F21.3°C 94% 3.7 mph N6.0 kmh N 10.0 mph16.1 kmh 30.03 in1016.9 mb - 0.00 in0.0 mm 0.01 in0.3 mm
09:30 AM 72.1°F22.3°C 69.9°F21.1°C 93% 0.9 mph NNE1.4 kmh NNE 3.0 mph4.8 kmh 30.03 in1016.9 mb - 0.00 in0.0 mm 0.01 in0.3 mm
09:45 AM 71.9°F22.2°C 70.1°F21.2°C 94% 0.5 mph W0.8 kmh W 4.0 mph6.4 kmh 30.02 in1016.6 mb - 0.01 in0.3 mm 0.02 in0.5 mm
10:00 AM 71.6°F22.0°C 70.1°F21.2°C 95% 3.2 mph N5.1 kmh N 5.0 mph8.0 kmh 30.02 in1016.6 mb - 0.01 in0.3 mm 0.03 in0.8 mm
10:15 AM 71.7°F22.1°C 70.2°F21.2°C 95% 1.8 mph NNE2.9 kmh NNE 4.0 mph6.4 kmh 30.01 in1016.3 mb - 0.00 in0.0 mm 0.03 in0.8 mm
10:30 AM 71.7°F22.1°C 70.2°F21.2°C 95% 0.1 mph SSW0.2 kmh SSW 2.0 mph3.2 kmh 30.01 in1016.3 mb - 0.01 in0.3 mm 0.04 in1.0 mm
10:45 AM 71.6°F22.0°C 70.1°F21.2°C 95% 0.7 mph WSW1.1 kmh WSW 5.0 mph8.0 kmh 30.01 in1016.3 mb - 0.01 in0.3 mm 0.05 in1.3 mm
11:00 AM 71.6°F22.0°C 70.4°F21.3°C 96% 1.7 mph WNW2.7 kmh WNW 3.0 mph4.8 kmh 30.00 in1015.9 mb - 0.00 in0.0 mm 0.05 in1.3 mm
11:15 AM 71.9°F22.2°C 70.7°F21.5°C 96% 1.0 mph NNW1.6 kmh NNW 4.0 mph6.4 kmh 30.00 in1015.9 mb - 0.01 in0.3 mm 0.06 in1.5 mm
11:30 AM 71.9°F22.2°C 70.7°F21.5°C 96% 0.7 mph NNE1.1 kmh NNE 2.0 mph3.2 kmh 29.99 in1015.6 mb - 0.00 in0.0 mm 0.06 in1.5 mm
11:45 AM 72.1°F22.3°C 70.9°F21.6°C 96% 0.6 mph WSW1.0 kmh WSW 2.0 mph3.2 kmh 29.98 in1015.2 mb - 0.01 in0.3 mm 0.07 in1.8 mm
12:00 PM 72.2°F22.3°C 71.0°F21.7°C 96% Calm Calm -- 29.98 in1015.2 mb - 0.01 in0.3 mm 0.08 in2.0 mm
12:15 PM 72.1°F22.3°C 70.9°F21.6°C 96% 1.8 mph W2.9 kmh W 4.0 mph6.4 kmh 29.98 in1015.2 mb - 0.00 in0.0 mm 0.08 in2.0 mm
12:30 PM 72.1°F22.3°C 70.9°F21.6°C 96% 0.9 mph WSW1.4 kmh WSW 2.0 mph3.2 kmh 29.98 in1015.2 mb - 0.01 in0.3 mm 0.09 in2.3 mm
12:45 PM 71.8°F22.1°C 70.6°F21.4°C 96% 2.5 mph N4.0 kmh N 9.0 mph14.5 kmh 29.97 in1014.9 mb - 0.01 in0.3 mm 0.10 in2.5 mm
01:00 PM 71.6°F22.0°C 70.8°F21.6°C 97% 0.6 mph NE1.0 kmh NE 4.0 mph6.4 kmh 29.97 in1014.9 mb - 0.01 in0.3 mm 0.11 in2.8 mm
01:15 PM 71.6°F22.0°C 70.7°F21.5°C 97% 1.6 mph E2.6 kmh E 4.0 mph6.4 kmh 29.96 in1014.6 mb - 0.00 in0.0 mm 0.11 in2.8 mm
01:30 PM 71.8°F22.1°C 70.9°F21.6°C 97% 1.1 mph SSE1.8 kmh SSE 3.0 mph4.8 kmh 29.96 in1014.6 mb - 0.01 in0.3 mm 0.12 in3.0 mm
01:45 PM 72.0°F22.2°C 71.1°F21.7°C 97% 2.5 mph NE4.0 kmh NE 7.0 mph11.3 kmh 29.95 in1014.2 mb - 0.01 in0.3 mm 0.13 in3.3 mm
02:00 PM 71.9°F22.2°C 71.0°F21.7°C 97% 0.9 mph WSW1.4 kmh WSW 2.0 mph3.2 kmh 29.94 in1013.9 mb - 0.01 in0.3 mm 0.14 in3.6 mm
02:15 PM 72.1°F22.3°C 71.2°F21.8°C 97% 1.8 mph WNW2.9 kmh WNW 7.0 mph11.3 kmh 29.94 in1013.9 mb - 0.01 in0.3 mm 0.15 in3.8 mm
02:30 PM 72.7°F22.6°C 71.8°F22.1°C 97% 4.0 mph WSW6.4 kmh WSW 8.0 mph12.9 kmh 29.94 in1013.9 mb - 0.00 in0.0 mm 0.15 in3.8 mm
02:45 PM 73.4°F23.0°C 72.4°F22.4°C 97% 3.7 mph NE6.0 kmh NE 11.0 mph17.7 kmh 29.93 in1013.5 mb - 0.01 in0.3 mm 0.16 in4.1 mm
03:00 PM 72.9°F22.7°C 71.7°F22.1°C 96% 2.0 mph E3.2 kmh E 7.0 mph11.3 kmh 29.93 in1013.5 mb - 0.01 in0.3 mm 0.17 in4.3 mm
03:15 PM 72.7°F22.6°C 71.5°F21.9°C 96% 1.4 mph E2.3 kmh E 8.0 mph12.9 kmh 29.93 in1013.5 mb - 0.58 in14.7 mm 0.75 in19.1 mm
03:30 PM 72.6°F22.6°C 71.4°F21.9°C 96% 1.9 mph NE3.1 kmh NE 4.0 mph6.4 kmh 29.92 in1013.2 mb - 0.00 in0.0 mm 0.75 in19.1 mm
03:45 PM 72.3°F22.4°C 71.0°F21.7°C 96% 4.2 mph SW6.8 kmh SW 6.0 mph9.7 kmh 29.92 in1013.2 mb - 0.12 in3.0 mm 0.87 in22.1 mm
04:00 PM 72.0°F22.2°C 70.8°F21.6°C 96% 2.3 mph ENE3.7 kmh ENE 5.0 mph8.0 kmh 29.91 in1012.9 mb - 0.02 in0.5 mm 0.89 in22.6 mm
04:15 PM 71.8°F22.1°C 70.6°F21.4°C 96% 1.8 mph 2.9 kmh 3.0 mph4.8 kmh 29.91 in1012.9 mb - 0.01 in0.3 mm 0.90 in22.9 mm
04:30 PM 71.9°F22.2°C 70.7°F21.5°C 96% 1.0 mph WSW1.6 kmh WSW 3.0 mph4.8 kmh 29.91 in1012.9 mb - 0.00 in0.0 mm 0.90 in22.9 mm
04:45 PM 71.7°F22.1°C 70.5°F21.4°C 96% 1.4 mph ESE2.3 kmh ESE 3.0 mph4.8 kmh 29.91 in1012.9 mb - 0.02 in0.5 mm 0.92 in23.4 mm
05:00 PM 71.6°F22.0°C 70.4°F21.3°C 96% 0.6 mph NNE1.0 kmh NNE 3.0 mph4.8 kmh 29.90 in1012.5 mb - 0.00 in0.0 mm 0.92 in23.4 mm
05:15 PM 71.5°F21.9°C 70.3°F21.3°C 96% 0.3 mph SW0.5 kmh SW 3.0 mph4.8 kmh 29.90 in1012.5 mb - 0.00 in0.0 mm 0.92 in23.4 mm
05:30 PM 71.5°F21.9°C 70.6°F21.4°C 97% 1.8 mph NE2.9 kmh NE 5.0 mph8.0 kmh 29.90 in1012.5 mb - 0.00 in0.0 mm 0.92 in23.4 mm
05:45 PM 71.6°F22.0°C 70.7°F21.5°C 97% Calm Calm 1.0 mph1.6 kmh 29.89 in1012.2 mb - 0.00 in0.0 mm 0.92 in23.4 mm
06:00 PM 71.6°F22.0°C 70.7°F21.5°C 97% 0.2 mph NNE0.3 kmh NNE 2.0 mph3.2 kmh 29.90 in1012.5 mb - 0.00 in0.0 mm 0.92 in23.4 mm
06:15 PM 71.7°F22.1°C 70.8°F21.6°C 97% 0.2 mph NE0.3 kmh NE 3.0 mph4.8 kmh 29.90 in1012.5 mb - 0.00 in0.0 mm 0.92 in23.4 mm
06:30 PM 71.7°F22.1°C 70.8°F21.6°C 97% Calm Calm 1.0 mph1.6 kmh 29.90 in1012.5 mb - 0.00 in0.0 mm 0.92 in23.4 mm
06:45 PM 71.6°F22.0°C 70.8°F21.6°C 97% 0.3 mph WSW0.5 kmh WSW 3.0 mph4.8 kmh 29.90 in1012.5 mb - 0.00 in0.0 mm 0.92 in23.4 mm
07:00 PM 71.6°F22.0°C 70.7°F21.5°C 97% Calm Calm 1.0 mph1.6 kmh 29.89 in1012.2 mb - 0.00 in0.0 mm 0.92 in23.4 mm
07:15 PM 71.6°F22.0°C 70.7°F21.5°C 97% 0.4 mph NNW0.6 kmh NNW -- 29.90 in1012.5 mb - 0.00 in0.0 mm 0.92 in23.4 mm
07:30 PM 71.6°F22.0°C 70.7°F21.5°C 97% Calm Calm -- 29.90 in1012.5 mb - 0.00 in0.0 mm 0.92 in23.4 mm
07:45 PM 71.7°F22.1°C 70.8°F21.6°C 97% 0.3 mph N0.5 kmh N 1.0 mph1.6 kmh 29.90 in1012.5 mb - 0.00 in0.0 mm 0.92 in23.4 mm
08:00 PM 71.8°F22.1°C 70.9°F21.6°C 97% 0.1 mph SSE0.2 kmh SSE 1.0 mph1.6 kmh 29.90 in1012.5 mb - 0.00 in0.0 mm 0.92 in23.4 mm
08:15 PM 72.0°F22.2°C 71.1°F21.7°C 97% Calm Calm -- 29.91 in1012.9 mb - 0.00 in0.0 mm 0.92 in23.4 mm
08:30 PM 72.1°F22.3°C 71.2°F21.8°C 97% Calm Calm -- 29.90 in1012.5 mb - 0.00 in0.0 mm 0.92 in23.4 mm
08:45 PM 72.3°F22.4°C 71.4°F21.9°C 97% Calm Calm -- 29.90 in1012.5 mb - 0.00 in0.0 mm 0.92 in23.4 mm
09:00 PM 72.3°F22.4°C 71.4°F21.9°C 97% Calm Calm -- 29.91 in1012.9 mb - 0.00 in0.0 mm 0.92 in23.4 mm
09:15 PM 72.3°F22.4°C 71.4°F21.9°C 97% Calm Calm -- 29.91 in1012.9 mb - 0.00 in0.0 mm 0.92 in23.4 mm
09:30 PM 72.5°F22.5°C 71.9°F22.2°C 98% Calm Calm -- 29.91 in1012.9 mb - 0.00 in0.0 mm 0.92 in23.4 mm
09:45 PM 72.4°F22.4°C 71.8°F22.1°C 98% Calm Calm -- 29.91 in1012.9 mb - 0.00 in0.0 mm 0.92 in23.4 mm
10:00 PM 72.2°F22.3°C 71.3°F21.8°C 97% Calm Calm -- 29.91 in1012.9 mb - 0.00 in0.0 mm 0.92 in23.4 mm
10:15 PM 72.1°F22.3°C 71.5°F21.9°C 98% Calm Calm -- 29.90 in1012.5 mb - 0.00 in0.0 mm 0.92 in23.4 mm
10:30 PM 72.2°F22.3°C 71.7°F22.1°C 98% Calm Calm -- 29.90 in1012.5 mb - 0.00 in0.0 mm 0.92 in23.4 mm
10:45 PM 72.1°F22.3°C 71.5°F21.9°C 98% Calm Calm -- 29.90 in1012.5 mb - 0.00 in0.0 mm 0.92 in23.4 mm
11:00 PM 72.1°F22.3°C 71.5°F21.9°C 98% Calm Calm -- 29.91 in1012.9 mb - 0.00 in0.0 mm 0.92 in23.4 mm
11:15 PM 72.3°F22.4°C 71.7°F22.1°C 98% Calm Calm -- 29.91 in1012.9 mb - 0.00 in0.0 mm 0.92 in23.4 mm
11:30 PM 72.2°F22.3°C 71.6°F22.0°C 98% Calm Calm -- 29.91 in1012.9 mb - 0.00 in0.0 mm 0.92 in23.4 mm
11:45 PM 72.2°F22.3°C 71.6°F22.0°C 98% Calm Calm -- 29.91 in1012.9 mb - 0.00 in0.0 mm 0.92 in23.4 mm